sensor_id;sensor_type;location;lat;lon;timestamp;pressure;altitude;pressure_sealevel;temperature
76009;BMP280;64700;52.130;21.270;2024-03-29T00:00:46;98829.75;;;19.60
76009;BMP280;64700;52.130;21.270;2024-03-29T00:03:11;98836.91;;;19.58
76009;BMP280;64700;52.130;21.270;2024-03-29T00:05:36;98845.53;;;19.62
76009;BMP280;64700;52.130;21.270;2024-03-29T00:08:02;98850.44;;;19.58
76009;BMP280;64700;52.130;21.270;2024-03-29T00:10:28;98854.38;;;19.57
76009;BMP280;64700;52.130;21.270;2024-03-29T00:12:53;98863.25;;;19.57
76009;BMP280;64700;52.130;21.270;2024-03-29T00:15:18;98874.84;;;19.58
76009;BMP280;64700;52.130;21.270;2024-03-29T00:17:43;98870.41;;;19.55
76009;BMP280;64700;52.130;21.270;2024-03-29T00:20:09;98878.53;;;19.55
76009;BMP280;64700;52.130;21.270;2024-03-29T00:22:34;98893.56;;;19.56
76009;BMP280;64700;52.130;21.270;2024-03-29T00:24:59;98889.16;;;19.58
76009;BMP280;64700;52.130;21.270;2024-03-29T00:27:25;98896.53;;;19.58
76009;BMP280;64700;52.130;21.270;2024-03-29T00:29:52;98903.66;;;19.55
76009;BMP280;64700;52.130;21.270;2024-03-29T00:32:20;98919.19;;;19.55
76009;BMP280;64700;52.130;21.270;2024-03-29T00:34:46;98919.94;;;19.55
76009;BMP280;64700;52.130;21.270;2024-03-29T00:37:11;98927.09;;;19.53
76009;BMP280;64700;52.130;21.270;2024-03-29T00:39:37;98927.59;;;19.57
76009;BMP280;64700;52.130;21.270;2024-03-29T00:42:02;98936.47;;;19.57
76009;BMP280;64700;52.130;21.270;2024-03-29T00:44:29;98942.13;;;19.54
76009;BMP280;64700;52.130;21.270;2024-03-29T00:46:54;98951.50;;;19.53
76009;BMP280;64700;52.130;21.270;2024-03-29T00:49:20;98949.75;;;19.55
76009;BMP280;64700;52.130;21.270;2024-03-29T00:51:45;98957.66;;;19.53
76009;BMP280;64700;52.130;21.270;2024-03-29T00:54:10;98966.53;;;19.54
76009;BMP280;64700;52.130;21.270;2024-03-29T00:56:35;98965.03;;;19.53
76009;BMP280;64700;52.130;21.270;2024-03-29T00:59:01;98972.91;;;19.51
76009;BMP280;64700;52.130;21.270;2024-03-29T01:01:26;98981.78;;;19.51
76009;BMP280;64700;52.130;21.270;2024-03-29T01:03:51;98978.34;;;19.51
76009;BMP280;64700;52.130;21.270;2024-03-29T01:06:17;98982.78;;;19.54
76009;BMP280;64700;52.130;21.270;2024-03-29T01:08:42;98992.16;;;19.53
76009;BMP280;64700;52.130;21.270;2024-03-29T01:11:07;98988.69;;;19.52
76009;BMP280;64700;52.130;21.270;2024-03-29T01:13:33;98993.13;;;19.50
76009;BMP280;64700;52.130;21.270;2024-03-29T01:15:58;99005.22;;;19.49
76009;BMP280;64700;52.130;21.270;2024-03-29T01:18:23;99015.31;;;19.54
76009;BMP280;64700;52.130;21.270;2024-03-29T01:20:49;99016.78;;;19.49
76009;BMP280;64700;52.130;21.270;2024-03-29T01:23:14;99020.22;;;19.50
76009;BMP280;64700;52.130;21.270;2024-03-29T01:25:39;99022.44;;;19.51
76009;BMP280;64700;52.130;21.270;2024-03-29T01:28:04;99029.59;;;19.49
76009;BMP280;64700;52.130;21.270;2024-03-29T01:30:30;99039.47;;;19.52
76009;BMP280;64700;52.130;21.270;2024-03-29T01:32:55;99037.50;;;19.52
76009;BMP280;64700;52.130;21.270;2024-03-29T01:35:20;99036.25;;;19.53
76009;BMP280;64700;52.130;21.270;2024-03-29T01:37:45;99049.06;;;19.47
76009;BMP280;64700;52.130;21.270;2024-03-29T01:40:11;99052.03;;;19.49
76009;BMP280;64700;52.130;21.270;2024-03-29T01:42:36;99064.09;;;19.48
76009;BMP280;64700;52.130;21.270;2024-03-29T01:45:02;99069.00;;;19.50
76009;BMP280;64700;52.130;21.270;2024-03-29T01:47:27;99066.81;;;19.48
76009;BMP280;64700;52.130;21.270;2024-03-29T01:49:52;99069.00;;;19.50
76009;BMP280;64700;52.130;21.270;2024-03-29T01:52:17;99072.72;;;19.52
76009;BMP280;64700;52.130;21.270;2024-03-29T01:54:43;99083.09;;;19.54
76009;BMP280;64700;52.130;21.270;2024-03-29T01:57:09;99087.50;;;19.51
76009;BMP280;64700;52.130;21.270;2024-03-29T01:59:34;99096.88;;;19.50
76009;BMP280;64700;52.130;21.270;2024-03-29T02:01:59;99092.44;;;19.53
76009;BMP280;64700;52.130;21.270;2024-03-29T02:04:26;99095.66;;;19.51
76009;BMP280;64700;52.130;21.270;2024-03-29T02:06:51;99100.59;;;19.53
76009;BMP280;64700;52.130;21.270;2024-03-29T02:09:17;99119.56;;;19.53
76009;BMP280;64700;52.130;21.270;2024-03-29T02:11:42;99117.56;;;19.48
76009;BMP280;64700;52.130;21.270;2024-03-29T02:14:07;99123.75;;;19.48
76009;BMP280;64700;52.130;21.270;2024-03-29T02:16:32;99132.84;;;19.51
76009;BMP280;64700;52.130;21.270;2024-03-29T02:18:58;99139.50;;;19.50
76009;BMP280;64700;52.130;21.270;2024-03-29T02:21:23;99125.69;;;19.48
76009;BMP280;64700;52.130;21.270;2024-03-29T02:23:53;99123.00;;;19.48
76009;BMP280;64700;52.130;21.270;2024-03-29T02:26:19;99121.78;;;19.49
76009;BMP280;64700;52.130;21.270;2024-03-29T02:28:44;99131.13;;;19.48
76009;BMP280;64700;52.130;21.270;2024-03-29T02:31:09;99136.31;;;19.51
76009;BMP280;64700;52.130;21.270;2024-03-29T02:33:34;99135.81;;;19.47
76009;BMP280;64700;52.130;21.270;2024-03-29T02:36:00;99141.50;;;19.49
76009;BMP280;64700;52.130;21.270;2024-03-29T02:38:25;99139.25;;;19.48
76009;BMP280;64700;52.130;21.270;2024-03-29T02:40:50;99158.22;;;19.48
76009;BMP280;64700;52.130;21.270;2024-03-29T02:43:15;99163.88;;;19.50
76009;BMP280;64700;52.130;21.270;2024-03-29T02:45:40;99167.59;;;19.47
76009;BMP280;64700;52.130;21.270;2024-03-29T02:48:06;99175.97;;;19.49
76009;BMP280;64700;52.130;21.270;2024-03-29T02:50:31;99176.22;;;19.45
76009;BMP280;64700;52.130;21.270;2024-03-29T02:52:56;99181.41;;;19.49
76009;BMP280;64700;52.130;21.270;2024-03-29T02:55:22;99197.16;;;19.50
76009;BMP280;64700;52.130;21.270;2024-03-29T02:57:47;99201.13;;;19.49
76009;BMP280;64700;52.130;21.270;2024-03-29T03:00:12;99205.53;;;19.47
76009;BMP280;64700;52.130;21.270;2024-03-29T03:02:38;99207.22;;;19.44
76009;BMP280;64700;52.130;21.270;2024-03-29T03:05:04;99206.47;;;19.44
76009;BMP280;64700;52.130;21.270;2024-03-29T03:07:30;99217.59;;;19.46
76009;BMP280;64700;52.130;21.270;2024-03-29T03:10:13;99222.06;;;19.49
76009;BMP280;64700;52.130;21.270;2024-03-29T03:12:57;99225.47;;;19.44
76009;BMP280;64700;52.130;21.270;2024-03-29T03:15:22;99235.56;;;19.43
76009;BMP280;64700;52.130;21.270;2024-03-29T03:17:48;99239.00;;;19.44
76009;BMP280;64700;52.130;21.270;2024-03-29T03:20:13;99238.50;;;19.40
76009;BMP280;64700;52.130;21.270;2024-03-29T03:22:40;99244.66;;;19.40
76009;BMP280;64700;52.130;21.270;2024-03-29T03:25:05;99248.13;;;19.41
76009;BMP280;64700;52.130;21.270;2024-03-29T03:27:31;99256.97;;;19.41
76009;BMP280;64700;52.130;21.270;2024-03-29T03:29:56;99264.38;;;19.41
76009;BMP280;64700;52.130;21.270;2024-03-29T03:32:21;99257.72;;;19.42
76009;BMP280;64700;52.130;21.270;2024-03-29T03:34:46;99279.91;;;19.40
76009;BMP280;64700;52.130;21.270;2024-03-29T03:37:12;99264.88;;;19.39
76009;BMP280;64700;52.130;21.270;2024-03-29T03:39:37;99277.19;;;19.40
76009;BMP280;64700;52.130;21.270;2024-03-29T03:42:03;99283.59;;;19.43
76009;BMP280;64700;52.130;21.270;2024-03-29T03:44:28;99286.31;;;19.43
76009;BMP280;64700;52.130;21.270;2024-03-29T03:46:53;99293.94;;;19.39
76009;BMP280;64700;52.130;21.270;2024-03-29T03:49:18;99295.66;;;19.42
76009;BMP280;64700;52.130;21.270;2024-03-29T03:51:44;99305.03;;;19.41
76009;BMP280;64700;52.130;21.270;2024-03-29T03:54:09;99311.94;;;19.42
76009;BMP280;64700;52.130;21.270;2024-03-29T03:56:34;99309.72;;;19.40
76009;BMP280;64700;52.130;21.270;2024-03-29T03:58:59;99321.31;;;19.41
76009;BMP280;64700;52.130;21.270;2024-03-29T04:01:25;99308.47;;;19.41
76009;BMP280;64700;52.130;21.270;2024-03-29T04:03:50;99313.28;;;19.26
76009;BMP280;64700;52.130;21.270;2024-03-29T04:06:15;99326.69;;;19.35
76009;BMP280;64700;52.130;21.270;2024-03-29T04:08:40;99323.75;;;19.39
76009;BMP280;64700;52.130;21.270;2024-03-29T04:11:05;99334.59;;;19.39
76009;BMP280;64700;52.130;21.270;2024-03-29T04:13:31;99328.69;;;19.40
76009;BMP280;64700;52.130;21.270;2024-03-29T04:16:05;99335.34;;;19.39
76009;BMP280;64700;52.130;21.270;2024-03-29T04:18:31;99332.84;;;19.36
76009;BMP280;64700;52.130;21.270;2024-03-29T04:21:00;99337.31;;;19.39
76009;BMP280;64700;52.130;21.270;2024-03-29T04:23:25;99343.69;;;19.36
76009;BMP280;64700;52.130;21.270;2024-03-29T04:25:54;99345.44;;;19.39
76009;BMP280;64700;52.130;21.270;2024-03-29T04:28:19;99343.47;;;19.39
76009;BMP280;64700;52.130;21.270;2024-03-29T04:30:54;99345.44;;;19.39
76009;BMP280;64700;52.130;21.270;2024-03-29T04:33:20;99352.56;;;19.36
76009;BMP280;64700;52.130;21.270;2024-03-29T04:35:58;99360.44;;;19.34
76009;BMP280;64700;52.130;21.270;2024-03-29T04:38:25;99369.81;;;19.39
76009;BMP280;64700;52.130;21.270;2024-03-29T04:40:51;99372.25;;;19.37
76009;BMP280;64700;52.130;21.270;2024-03-29T04:43:16;99384.34;;;19.36
76009;BMP280;64700;52.130;21.270;2024-03-29T04:45:43;99393.94;;;19.37
76009;BMP280;64700;52.130;21.270;2024-03-29T04:48:08;99402.81;;;19.37
76009;BMP280;64700;52.130;21.270;2024-03-29T04:50:34;99405.00;;;19.33
76009;BMP280;64700;52.130;21.270;2024-03-29T04:52:59;99397.91;;;19.36
76009;BMP280;64700;52.130;21.270;2024-03-29T04:55:25;99392.47;;;19.36
76009;BMP280;64700;52.130;21.270;2024-03-29T04:57:50;99387.06;;;19.36
76009;BMP280;64700;52.130;21.270;2024-03-29T05:00:15;99400.63;;;19.36
76009;BMP280;64700;52.130;21.270;2024-03-29T05:02:40;99405.50;;;19.32
76009;BMP280;64700;52.130;21.270;2024-03-29T05:05:06;99408.22;;;19.32
76009;BMP280;64700;52.130;21.270;2024-03-29T05:07:31;99411.41;;;19.30
76009;BMP280;64700;52.130;21.270;2024-03-29T05:09:56;99415.84;;;19.33
76009;BMP280;64700;52.130;21.270;2024-03-29T05:12:21;99415.59;;;19.31
76009;BMP280;64700;52.130;21.270;2024-03-29T05:14:47;99423.75;;;19.37
76009;BMP280;64700;52.130;21.270;2024-03-29T05:17:14;99430.16;;;19.34
76009;BMP280;64700;52.130;21.270;2024-03-29T05:19:39;99424.25;;;19.35
76009;BMP280;64700;52.130;21.270;2024-03-29T05:22:04;99435.56;;;19.34
76009;BMP280;64700;52.130;21.270;2024-03-29T05:24:30;99438.28;;;19.34
76009;BMP280;64700;52.130;21.270;2024-03-29T05:26:55;99440.53;;;19.35
76009;BMP280;64700;52.130;21.270;2024-03-29T05:29:20;99435.56;;;19.34
76009;BMP280;64700;52.130;21.270;2024-03-29T05:31:45;99439.03;;;19.34
76009;BMP280;64700;52.130;21.270;2024-03-29T05:34:10;99441.03;;;19.39
76009;BMP280;64700;52.130;21.270;2024-03-29T05:36:36;99444.75;;;19.42
76009;BMP280;64700;52.130;21.270;2024-03-29T05:39:01;99433.91;;;19.42
76009;BMP280;64700;52.130;21.270;2024-03-29T05:41:28;99435.41;;;19.43
76009;BMP280;64700;52.130;21.270;2024-03-29T05:43:55;99436.88;;;19.44
76009;BMP280;64700;52.130;21.270;2024-03-29T05:46:20;99436.69;;;19.47
76009;BMP280;64700;52.130;21.270;2024-03-29T05:48:46;99447.06;;;19.49
76009;BMP280;64700;52.130;21.270;2024-03-29T05:51:11;99443.13;;;19.50
76009;BMP280;64700;52.130;21.270;2024-03-29T05:53:36;99455.03;;;19.58
76009;BMP280;64700;52.130;21.270;2024-03-29T05:56:01;99448.09;;;19.57
76009;BMP280;64700;52.130;21.270;2024-03-29T05:58:26;99453.06;;;19.58
76009;BMP280;64700;52.130;21.270;2024-03-29T06:00:52;99458.00;;;19.60
76009;BMP280;64700;52.130;21.270;2024-03-29T06:03:17;99464.94;;;19.61
76009;BMP280;64700;52.130;21.270;2024-03-29T06:05:42;99458.28;;;19.62
76009;BMP280;64700;52.130;21.270;2024-03-29T06:08:08;99454.34;;;19.63
76009;BMP280;64700;52.130;21.270;2024-03-29T06:10:33;99456.31;;;19.62
76009;BMP280;64700;52.130;21.270;2024-03-29T06:12:58;99452.88;;;19.62
76009;BMP280;64700;52.130;21.270;2024-03-29T06:15:33;99461.75;;;19.62
76009;BMP280;64700;52.130;21.270;2024-03-29T06:18:17;99460.03;;;19.65
76009;BMP280;64700;52.130;21.270;2024-03-29T06:20:43;99463.00;;;19.67
76009;BMP280;64700;52.130;21.270;2024-03-29T06:23:08;99462.03;;;19.70
76009;BMP280;64700;52.130;21.270;2024-03-29T06:25:33;99466.78;;;19.75
76009;BMP280;64700;52.130;21.270;2024-03-29T06:27:59;99474.44;;;19.77
76009;BMP280;64700;52.130;21.270;2024-03-29T06:30:25;99480.88;;;19.79
76009;BMP280;64700;52.130;21.270;2024-03-29T06:32:50;99486.06;;;19.83
76009;BMP280;64700;52.130;21.270;2024-03-29T06:35:15;99487.34;;;19.87
76009;BMP280;64700;52.130;21.270;2024-03-29T06:37:40;99495.75;;;19.89
76009;BMP280;64700;52.130;21.270;2024-03-29T06:40:07;99503.47;;;19.96
76009;BMP280;64700;52.130;21.270;2024-03-29T06:42:33;99505.47;;;20.01
76009;BMP280;64700;52.130;21.270;2024-03-29T06:44:58;99508.50;;;20.09
76009;BMP280;64700;52.130;21.270;2024-03-29T06:47:24;99521.38;;;20.14
76009;BMP280;64700;52.130;21.270;2024-03-29T06:49:49;99511.56;;;20.22
76009;BMP280;64700;52.130;21.270;2024-03-29T06:52:14;99520.22;;;20.32
76009;BMP280;64700;52.130;21.270;2024-03-29T06:54:39;99526.75;;;20.40
76009;BMP280;64700;52.130;21.270;2024-03-29T06:57:05;99529.78;;;20.53
76009;BMP280;64700;52.130;21.270;2024-03-29T06:59:30;99535.97;;;20.59
76009;BMP280;64700;52.130;21.270;2024-03-29T07:01:55;99534.78;;;20.66
76009;BMP280;64700;52.130;21.270;2024-03-29T07:04:21;99545.22;;;20.73
76009;BMP280;64700;52.130;21.270;2024-03-29T07:06:46;99558.84;;;20.84
76009;BMP280;64700;52.130;21.270;2024-03-29T07:09:21;99559.13;;;20.91
76009;BMP280;64700;52.130;21.270;2024-03-29T07:11:47;99551.03;;;20.97
76009;BMP280;64700;52.130;21.270;2024-03-29T07:14:16;99556.50;;;21.03
76009;BMP280;64700;52.130;21.270;2024-03-29T07:16:45;99555.53;;;21.11
76009;BMP280;64700;52.130;21.270;2024-03-29T07:19:10;99558.50;;;21.13
76009;BMP280;64700;52.130;21.270;2024-03-29T07:21:41;99552.84;;;21.17
76009;BMP280;64700;52.130;21.270;2024-03-29T07:24:06;99543.22;;;21.21
76009;BMP280;64700;52.130;21.270;2024-03-29T07:26:31;99534.09;;;21.24
76009;BMP280;64700;52.130;21.270;2024-03-29T07:28:57;99538.06;;;21.29
76009;BMP280;64700;52.130;21.270;2024-03-29T07:31:22;99553.38;;;21.32
76009;BMP280;64700;52.130;21.270;2024-03-29T07:33:47;99545.22;;;21.32
76009;BMP280;64700;52.130;21.270;2024-03-29T07:36:13;99551.44;;;21.38
76009;BMP280;64700;52.130;21.270;2024-03-29T07:38:38;99546.00;;;21.38
76009;BMP280;64700;52.130;21.270;2024-03-29T07:41:04;99539.56;;;21.41
76009;BMP280;64700;52.130;21.270;2024-03-29T07:44:13;99543.06;;;21.47
76009;BMP280;64700;52.130;21.270;2024-03-29T07:46:21;99532.19;;;21.47
76009;BMP280;64700;52.130;21.270;2024-03-29T07:48:47;99549.53;;;21.55
76009;BMP280;64700;52.130;21.270;2024-03-29T07:51:13;99546.28;;;21.57
76009;BMP280;64700;52.130;21.270;2024-03-29T07:53:38;99545.06;;;21.58
76009;BMP280;64700;52.130;21.270;2024-03-29T07:56:03;99554.47;;;21.62
76009;BMP280;64700;52.130;21.270;2024-03-29T07:58:28;99555.44;;;21.65
76009;BMP280;64700;52.130;21.270;2024-03-29T08:00:54;99549.03;;;21.62
76009;BMP280;64700;52.130;21.270;2024-03-29T08:03:19;99559.91;;;21.62
76009;BMP280;64700;52.130;21.270;2024-03-29T08:08:41;99559.16;;;21.67
76009;BMP280;64700;52.130;21.270;2024-03-29T08:11:06;99562.63;;;21.68
76009;BMP280;64700;52.130;21.270;2024-03-29T08:13:35;99572.00;;;21.61
76009;BMP280;64700;52.130;21.270;2024-03-29T08:16:00;99586.59;;;21.64
76009;BMP280;64700;52.130;21.270;2024-03-29T08:18:26;99598.47;;;21.61
76009;BMP280;64700;52.130;21.270;2024-03-29T08:20:51;99594.75;;;21.58
76009;BMP280;64700;52.130;21.270;2024-03-29T08:23:17;99587.09;;;21.57
76009;BMP280;64700;52.130;21.270;2024-03-29T08:25:42;99582.88;;;21.56
76009;BMP280;64700;52.130;21.270;2024-03-29T08:28:07;99583.88;;;21.53
76009;BMP280;64700;52.130;21.270;2024-03-29T08:30:32;99578.16;;;21.51
76009;BMP280;64700;52.130;21.270;2024-03-29T08:33:01;99580.88;;;21.51
76009;BMP280;64700;52.130;21.270;2024-03-29T08:35:28;99571.47;;;21.52
76009;BMP280;64700;52.130;21.270;2024-03-29T08:37:53;99574.44;;;21.48
76009;BMP280;64700;52.130;21.270;2024-03-29T08:40:18;99579.13;;;21.48
76009;BMP280;64700;52.130;21.270;2024-03-29T08:42:43;99577.66;;;21.41
76009;BMP280;64700;52.130;21.270;2024-03-29T08:45:09;99583.56;;;21.40
76009;BMP280;64700;52.130;21.270;2024-03-29T08:47:35;99580.13;;;21.39
76009;BMP280;64700;52.130;21.270;2024-03-29T08:50:00;99579.84;;;21.37
76009;BMP280;64700;52.130;21.270;2024-03-29T08:52:25;99591.94;;;21.36
76009;BMP280;64700;52.130;21.270;2024-03-29T08:54:51;99583.78;;;21.30
76009;BMP280;64700;52.130;21.270;2024-03-29T08:57:16;99602.09;;;21.30
76009;BMP280;64700;52.130;21.270;2024-03-29T08:59:42;99601.06;;;21.27
76009;BMP280;64700;52.130;21.270;2024-03-29T09:02:07;99600.34;;;21.27
76009;BMP280;64700;52.130;21.270;2024-03-29T09:04:33;99604.53;;;21.22
76009;BMP280;64700;52.130;21.270;2024-03-29T09:07:01;99610.19;;;21.19
76009;BMP280;64700;52.130;21.270;2024-03-29T09:09:30;99610.91;;;21.19
76009;BMP280;64700;52.130;21.270;2024-03-29T09:11:56;99612.41;;;21.15
76009;BMP280;64700;52.130;21.270;2024-03-29T09:14:21;99615.13;;;21.15
76009;BMP280;64700;52.130;21.270;2024-03-29T09:16:46;99608.94;;;21.14
76009;BMP280;64700;52.130;21.270;2024-03-29T09:19:14;99611.16;;;21.16
76009;BMP280;64700;52.130;21.270;2024-03-29T09:21:40;99619.06;;;21.14
76009;BMP280;64700;52.130;21.270;2024-03-29T09:24:05;99616.34;;;21.14
76009;BMP280;64700;52.130;21.270;2024-03-29T09:26:30;99626.47;;;21.13
76009;BMP280;64700;52.130;21.270;2024-03-29T09:28:56;99627.69;;;21.12
76009;BMP280;64700;52.130;21.270;2024-03-29T09:31:21;99636.34;;;21.11
76009;BMP280;64700;52.130;21.270;2024-03-29T09:33:46;99624.22;;;21.12
76009;BMP280;64700;52.130;21.270;2024-03-29T09:36:14;99624.00;;;21.10
76009;BMP280;64700;52.130;21.270;2024-03-29T09:38:40;99633.41;;;21.14
76009;BMP280;64700;52.130;21.270;2024-03-29T09:41:13;99624.50;;;21.14
76009;BMP280;64700;52.130;21.270;2024-03-29T09:43:40;99623.75;;;21.13
76009;BMP280;64700;52.130;21.270;2024-03-29T09:46:06;99619.31;;;21.16
76009;BMP280;64700;52.130;21.270;2024-03-29T09:48:32;99609.41;;;21.13
76009;BMP280;64700;52.130;21.270;2024-03-29T09:51:05;99617.84;;;21.15
76009;BMP280;64700;52.130;21.270;2024-03-29T09:53:31;99612.88;;;21.13
76009;BMP280;64700;52.130;21.270;2024-03-29T09:55:56;99626.72;;;21.15
76009;BMP280;64700;52.130;21.270;2024-03-29T09:58:22;99630.94;;;21.16
76009;BMP280;64700;52.130;21.270;2024-03-29T10:00:47;99624.50;;;21.14
76009;BMP280;64700;52.130;21.270;2024-03-29T10:03:13;99630.94;;;21.16
76009;BMP280;64700;52.130;21.270;2024-03-29T10:05:39;99634.38;;;21.17
76009;BMP280;64700;52.130;21.270;2024-03-29T10:08:04;99632.41;;;21.17
76009;BMP280;64700;52.130;21.270;2024-03-29T10:10:32;99632.66;;;21.19
76009;BMP280;64700;52.130;21.270;2024-03-29T10:13:00;99629.47;;;21.21
76009;BMP280;64700;52.130;21.270;2024-03-29T10:15:27;99628.72;;;21.20
76009;BMP280;64700;52.130;21.270;2024-03-29T10:17:53;99628.47;;;21.18
76009;BMP280;64700;52.130;21.270;2024-03-29T10:20:18;99632.19;;;21.21
76009;BMP280;64700;52.130;21.270;2024-03-29T10:22:44;99636.66;;;21.24
76009;BMP280;64700;52.130;21.270;2024-03-29T10:25:10;99625.78;;;21.24
76009;BMP280;64700;52.130;21.270;2024-03-29T10:27:36;99628.50;;;21.24
76009;BMP280;64700;52.130;21.270;2024-03-29T10:30:01;99623.81;;;21.24
76009;BMP280;64700;52.130;21.270;2024-03-29T10:32:28;99619.88;;;21.25
76009;BMP280;64700;52.130;21.270;2024-03-29T10:34:53;99615.19;;;21.26
76009;BMP280;64700;52.130;21.270;2024-03-29T10:37:19;99620.84;;;21.28
76009;BMP280;64700;52.130;21.270;2024-03-29T10:39:51;99627.53;;;21.27
76009;BMP280;64700;52.130;21.270;2024-03-29T10:42:17;99624.31;;;21.28
76009;BMP280;64700;52.130;21.270;2024-03-29T10:44:44;99626.28;;;21.28
76009;BMP280;64700;52.130;21.270;2024-03-29T10:47:09;99645.31;;;21.28
76009;BMP280;64700;52.130;21.270;2024-03-29T10:49:39;99635.94;;;21.29
76009;BMP280;64700;52.130;21.270;2024-03-29T10:52:06;99631.25;;;21.29
76009;BMP280;64700;52.130;21.270;2024-03-29T10:54:31;99636.41;;;21.27
76009;BMP280;64700;52.130;21.270;2024-03-29T10:56:59;99637.16;;;21.22
76009;BMP280;64700;52.130;21.270;2024-03-29T11:04:58;99642.09;;;21.24
76009;BMP280;64700;52.130;21.270;2024-03-29T11:07:25;99639.66;;;21.26
76009;BMP280;64700;52.130;21.270;2024-03-29T11:09:52;99633.94;;;21.24
76009;BMP280;64700;52.130;21.270;2024-03-29T11:12:17;99638.16;;;21.25
76009;BMP280;64700;52.130;21.270;2024-03-29T11:14:45;99640.88;;;21.25
76009;BMP280;64700;52.130;21.270;2024-03-29T11:17:12;99631.97;;;21.24
76009;BMP280;64700;52.130;21.270;2024-03-29T11:19:39;99643.34;;;21.23
76009;BMP280;64700;52.130;21.270;2024-03-29T11:22:04;99636.88;;;21.20
76009;BMP280;64700;52.130;21.270;2024-03-29T11:24:29;99635.38;;;21.19
76009;BMP280;64700;52.130;21.270;2024-03-29T11:26:56;99646.00;;;21.17
76009;BMP280;64700;52.130;21.270;2024-03-29T11:29:22;99639.81;;;21.17
76009;BMP280;64700;52.130;21.270;2024-03-29T11:31:48;99635.38;;;21.14
76009;BMP280;64700;52.130;21.270;2024-03-29T11:34:20;99622.25;;;21.12
76009;BMP280;64700;52.130;21.270;2024-03-29T11:36:46;99618.78;;;21.12
76009;BMP280;64700;52.130;21.270;2024-03-29T11:39:21;99620.03;;;21.11
76009;BMP280;64700;52.130;21.270;2024-03-29T11:41:47;99627.72;;;21.18
76009;BMP280;64700;52.130;21.270;2024-03-29T11:44:13;99620.78;;;21.17
76009;BMP280;64700;52.130;21.270;2024-03-29T11:46:38;99618.34;;;21.19
76009;BMP280;64700;52.130;21.270;2024-03-29T11:49:04;99613.63;;;21.19
76009;BMP280;64700;52.130;21.270;2024-03-29T11:51:30;99616.84;;;21.18
76009;BMP280;64700;52.130;21.270;2024-03-29T11:53:55;99634.16;;;21.20
76009;BMP280;64700;52.130;21.270;2024-03-29T11:56:21;99629.47;;;21.21
76009;BMP280;64700;52.130;21.270;2024-03-29T11:58:47;99640.34;;;21.21
76009;BMP280;64700;52.130;21.270;2024-03-29T12:01:13;99645.03;;;21.20
76009;BMP280;64700;52.130;21.270;2024-03-29T12:03:39;99639.81;;;21.17
76009;BMP280;64700;52.130;21.270;2024-03-29T12:06:05;99640.81;;;21.14
76009;BMP280;64700;52.130;21.270;2024-03-29T12:08:31;99642.50;;;21.11
76009;BMP280;64700;52.130;21.270;2024-03-29T12:11:00;99633.38;;;21.09
76009;BMP280;64700;52.130;21.270;2024-03-29T12:13:25;99634.59;;;21.08
76009;BMP280;64700;52.130;21.270;2024-03-29T12:15:51;99635.31;;;21.03
76009;BMP280;64700;52.130;21.270;2024-03-29T12:18:16;99639.72;;;21.00
76009;BMP280;64700;52.130;21.270;2024-03-29T12:20:41;99654.06;;;21.01
76009;BMP280;64700;52.130;21.270;2024-03-29T12:23:10;99647.66;;;20.98
76009;BMP280;64700;52.130;21.270;2024-03-29T12:25:36;99641.19;;;20.96
76009;BMP280;64700;52.130;21.270;2024-03-29T12:28:02;99639.69;;;20.95
76009;BMP280;64700;52.130;21.270;2024-03-29T12:30:27;99636.97;;;20.95
76009;BMP280;64700;52.130;21.270;2024-03-29T12:33:09;99656.50;;;20.99
76009;BMP280;64700;52.130;21.270;2024-03-29T12:35:36;99655.56;;;21.02
76009;BMP280;64700;52.130;21.270;2024-03-29T12:38:02;99648.91;;;21.03
76009;BMP280;64700;52.130;21.270;2024-03-29T12:40:28;99654.06;;;21.01
76009;BMP280;64700;52.130;21.270;2024-03-29T12:42:55;99651.06;;;20.99
76009;BMP280;64700;52.130;21.270;2024-03-29T12:45:21;99649.34;;;20.96
76009;BMP280;64700;52.130;21.270;2024-03-29T12:47:47;99654.53;;;20.94
76009;BMP280;64700;52.130;21.270;2024-03-29T12:52:50;99654.97;;;20.92
76009;BMP280;64700;52.130;21.270;2024-03-29T12:55:18;99669.03;;;20.90
76009;BMP280;64700;52.130;21.270;2024-03-29T12:57:43;99662.38;;;20.86
76009;BMP280;64700;52.130;21.270;2024-03-29T13:00:09;99664.88;;;20.89
76009;BMP280;64700;52.130;21.270;2024-03-29T13:02:38;99658.69;;;20.89
76009;BMP280;64700;52.130;21.270;2024-03-29T13:05:04;99659.91;;;20.88
76009;BMP280;64700;52.130;21.270;2024-03-29T13:07:29;99661.88;;;20.87
76009;BMP280;64700;52.130;21.270;2024-03-29T13:09:55;99665.81;;;20.86
76009;BMP280;64700;52.130;21.270;2024-03-29T13:12:20;99658.69;;;20.89
76009;BMP280;64700;52.130;21.270;2024-03-29T13:14:45;99662.91;;;20.90
76009;BMP280;64700;52.130;21.270;2024-03-29T13:17:11;99665.34;;;20.88
76009;BMP280;64700;52.130;21.270;2024-03-29T13:19:36;99668.06;;;20.88
76009;BMP280;64700;52.130;21.270;2024-03-29T13:22:01;99652.97;;;20.87
76009;BMP280;64700;52.130;21.270;2024-03-29T13:24:26;99661.88;;;20.87
76009;BMP280;64700;52.130;21.270;2024-03-29T13:26:53;99665.81;;;20.86
76009;BMP280;64700;52.130;21.270;2024-03-29T13:29:18;99671.75;;;20.85
76009;BMP280;64700;52.130;21.270;2024-03-29T13:31:44;99659.38;;;20.84
76009;BMP280;64700;52.130;21.270;2024-03-29T13:34:10;99662.59;;;20.82
76009;BMP280;64700;52.130;21.270;2024-03-29T13:36:40;99671.25;;;20.81
76009;BMP280;64700;52.130;21.270;2024-03-29T13:39:07;99659.16;;;20.82
76009;BMP280;64700;52.130;21.270;2024-03-29T13:41:33;99663.84;;;20.81
76009;BMP280;64700;52.130;21.270;2024-03-29T13:43:58;99675.19;;;20.80
76009;BMP280;64700;52.130;21.270;2024-03-29T13:46:25;99672.47;;;20.80
76009;BMP280;64700;52.130;21.270;2024-03-29T13:48:50;99667.50;;;20.78
76009;BMP280;64700;52.130;21.270;2024-03-29T13:51:18;99680.81;;;20.76
76009;BMP280;64700;52.130;21.270;2024-03-29T13:53:43;99680.38;;;20.78
76009;BMP280;64700;52.130;21.270;2024-03-29T13:56:09;99687.00;;;20.77
76009;BMP280;64700;52.130;21.270;2024-03-29T13:58:34;99680.53;;;20.74
76009;BMP280;64700;52.130;21.270;2024-03-29T14:00:59;99688.69;;;20.74